createdAt,value
2023-04-07T00:00:27.140Z,78.72
2023-04-07T00:02:54.213Z,79.41
2023-04-07T00:05:21.676Z,78.14
2023-04-07T00:07:55.658Z,78.01
2023-04-07T00:10:25.312Z,76.73
2023-04-07T00:12:52.239Z,75.73
2023-04-07T00:15:18.879Z,74.38
2023-04-07T00:17:45.619Z,72.50
2023-04-07T00:20:12.536Z,71.53
2023-04-07T00:22:39.975Z,71.56
2023-04-07T00:25:07.407Z,72.62
2023-04-07T00:27:34.089Z,71.88
2023-04-07T00:30:00.701Z,73.13
2023-04-07T00:32:27.392Z,73.59
2023-04-07T00:34:53.959Z,74.10
2023-04-07T00:37:21.577Z,73.36
2023-04-07T00:39:48.327Z,75.06
2023-04-07T00:42:14.852Z,74.74
2023-04-07T00:44:41.991Z,74.16
2023-04-07T00:47:08.556Z,73.47
2023-04-07T00:49:39.635Z,72.84
2023-04-07T00:52:07.237Z,74.46
2023-04-07T00:54:33.944Z,75.38
2023-04-07T00:57:01.750Z,74.04
2023-04-07T00:59:31.240Z,78.31
2023-04-07T01:02:18.260Z,77.61
2023-04-07T01:04:47.831Z,79.70
2023-04-07T01:07:27.679Z,80.77
2023-04-07T01:10:06.544Z,83.29
2023-04-07T01:13:03.013Z,81.68
2023-04-07T01:15:31.737Z,81.21
2023-04-07T01:18:08.727Z,82.55
2023-04-07T01:20:37.801Z,84.44
2023-04-07T01:23:07.827Z,85.12
2023-04-07T01:26:04.839Z,82.98
2023-04-07T01:29:03.979Z,86.12
2023-04-07T01:31:30.976Z,87.77
2023-04-07T01:34:00.575Z,89.44
2023-04-07T01:36:28.548Z,91.35
2023-04-07T01:38:56.304Z,91.76
2023-04-07T01:41:24.494Z,93.22
2023-04-07T01:43:53.586Z,93.20
2023-04-07T01:46:21.122Z,97.76
2023-04-07T01:48:48.921Z,98.44
2023-04-07T01:51:18.952Z,99.57
2023-04-07T01:53:46.369Z,98.70
2023-04-07T01:56:13.192Z,99.74
2023-04-07T01:58:40.821Z,100.00
2023-04-07T02:01:11.027Z,100.00
2023-04-07T02:03:47.203Z,100.00
2023-04-07T02:06:19.491Z,100.00
2023-04-07T02:08:50.460Z,100.00
2023-04-07T02:11:21.133Z,100.00
2023-04-07T02:13:53.049Z,100.00
2023-04-07T02:16:22.294Z,100.00
2023-04-07T02:18:50.117Z,100.00
2023-04-07T02:21:17.215Z,100.00
2023-04-07T02:23:46.453Z,100.00
2023-04-07T02:26:13.381Z,100.00
2023-04-07T02:28:39.970Z,100.00
2023-04-07T02:31:06.875Z,100.00
2023-04-07T02:33:33.503Z,100.00
2023-04-07T02:36:00.285Z,100.00
2023-04-07T02:38:28.177Z,100.00
2023-04-07T02:40:55.617Z,100.00
2023-04-07T02:43:25.342Z,100.00
2023-04-07T02:45:52.011Z,100.00
2023-04-07T02:48:18.703Z,100.00
2023-04-07T02:50:45.522Z,100.00
2023-04-07T02:53:12.230Z,100.00
2023-04-07T02:55:38.901Z,100.00
2023-04-07T02:58:05.703Z,100.00
2023-04-07T03:00:42.420Z,100.00
2023-04-07T03:03:13.085Z,100.00
2023-04-07T03:05:43.223Z,100.00
2023-04-07T03:08:12.818Z,100.00
2023-04-07T03:10:40.014Z,100.00
2023-04-07T03:13:08.427Z,100.00
2023-04-07T03:15:35.860Z,100.00
2023-04-07T03:18:02.492Z,100.00
2023-04-07T03:20:30.460Z,100.00
2023-04-07T03:23:02.060Z,100.00
2023-04-07T03:25:29.789Z,100.00
2023-04-07T03:27:56.822Z,100.00
2023-04-07T03:30:26.352Z,100.00
2023-04-07T03:32:53.197Z,100.00
2023-04-07T03:35:19.872Z,100.00
2023-04-07T03:37:46.550Z,100.00
2023-04-07T03:40:17.013Z,100.00
2023-04-07T03:42:46.699Z,100.00
2023-04-07T03:45:14.023Z,100.00
2023-04-07T03:47:46.011Z,100.00
2023-04-07T03:50:13.530Z,100.00
2023-04-07T03:53:01.046Z,100.00
2023-04-07T03:55:30.646Z,100.00
2023-04-07T03:58:03.158Z,100.00
2023-04-07T04:00:33.663Z,100.00
2023-04-07T04:03:08.095Z,100.00
2023-04-07T04:05:38.198Z,100.00
2023-04-07T04:08:06.697Z,100.00
2023-04-07T04:10:36.644Z,100.00
2023-04-07T04:13:06.622Z,100.00
2023-04-07T04:15:33.291Z,100.00
2023-04-07T04:18:01.816Z,100.00
2023-04-07T04:20:30.255Z,100.00
2023-04-07T04:22:56.922Z,100.00
2023-04-07T04:25:24.549Z,100.00
2023-04-07T04:27:54.884Z,100.00
2023-04-07T04:30:24.494Z,100.00
2023-04-07T04:32:55.533Z,100.00
2023-04-07T04:35:30.010Z,100.00
2023-04-07T04:38:09.884Z,100.00
2023-04-07T04:40:39.387Z,100.00
2023-04-07T04:43:07.176Z,100.00
2023-04-07T04:45:36.802Z,100.00
2023-04-07T04:48:04.818Z,100.00
2023-04-07T04:50:31.539Z,100.00
2023-04-07T04:52:58.317Z,100.00
2023-04-07T04:55:24.945Z,100.00
2023-04-07T04:57:53.120Z,100.00
2023-04-07T05:00:28.110Z,100.00
2023-04-07T05:03:00.899Z,100.00
2023-04-07T05:05:27.895Z,100.00
2023-04-07T05:07:56.337Z,100.00
2023-04-07T05:10:25.026Z,100.00
2023-04-07T05:12:51.728Z,100.00
2023-04-07T05:15:18.448Z,100.00
2023-04-07T05:17:50.518Z,100.00
2023-04-07T05:20:22.601Z,100.00
2023-04-07T05:22:49.927Z,100.00
2023-04-07T05:25:18.278Z,100.00
2023-04-07T05:27:46.955Z,100.00
2023-04-07T05:30:16.301Z,100.00
2023-04-07T05:32:43.497Z,100.00
2023-04-07T05:35:21.096Z,100.00
2023-04-07T05:37:53.439Z,100.00
2023-04-07T05:40:20.394Z,100.00
2023-04-07T05:42:47.446Z,100.00
2023-04-07T05:45:14.792Z,100.00
2023-04-07T05:47:49.997Z,100.00
2023-04-07T05:50:20.641Z,100.00
2023-04-07T05:52:49.514Z,100.00
2023-04-07T05:55:23.215Z,100.00
2023-04-07T05:57:51.595Z,100.00
2023-04-07T06:00:21.867Z,100.00
2023-04-07T06:02:59.305Z,100.00
2023-04-07T06:05:26.574Z,100.00
2023-04-07T06:07:55.997Z,100.00
2023-04-07T06:10:25.849Z,100.00
2023-04-07T06:12:52.631Z,100.00
2023-04-07T06:15:19.439Z,100.00
2023-04-07T06:17:46.205Z,100.00
2023-04-07T06:20:12.871Z,100.00
2023-04-07T06:22:39.573Z,100.00
2023-04-07T06:25:07.974Z,100.00
2023-04-07T06:27:35.368Z,100.00
2023-04-07T06:30:02.278Z,100.00
2023-04-07T06:32:28.841Z,100.00
2023-04-07T06:34:57.159Z,100.00
2023-04-07T06:37:25.116Z,100.00
2023-04-07T06:39:52.174Z,100.00
2023-04-07T06:42:18.872Z,100.00
2023-04-07T06:44:57.131Z,100.00
2023-04-07T06:47:24.339Z,100.00
2023-04-07T06:49:51.145Z,100.00
2023-04-07T06:52:17.908Z,100.00
2023-04-07T06:54:44.859Z,100.00
2023-04-07T06:57:12.223Z,100.00
2023-04-07T06:59:39.137Z,100.00
2023-04-07T07:02:07.825Z,100.00
2023-04-07T07:04:37.543Z,100.00
2023-04-07T07:07:04.570Z,100.00
2023-04-07T07:09:31.394Z,100.00
2023-04-07T07:11:58.012Z,100.00
2023-04-07T07:14:24.714Z,100.00
2023-04-07T07:16:51.264Z,100.00
2023-04-07T07:19:17.882Z,100.00
2023-04-07T07:21:44.605Z,100.00
2023-04-07T07:24:11.290Z,100.00
2023-04-07T07:26:38.034Z,100.00
2023-04-07T07:29:04.959Z,100.00
2023-04-07T07:31:31.853Z,100.00
2023-04-07T07:33:58.700Z,100.00
2023-04-07T07:36:26.680Z,100.00
2023-04-07T07:38:53.272Z,100.00
2023-04-07T07:41:19.897Z,100.00
2023-04-07T07:43:46.666Z,100.00
2023-04-07T07:46:13.428Z,100.00
2023-04-07T07:48:40.247Z,100.00
2023-04-07T07:51:07.037Z,100.00
2023-04-07T07:53:33.796Z,100.00
2023-04-07T07:56:00.445Z,100.00
2023-04-07T07:58:27.011Z,100.00
2023-04-07T08:00:53.870Z,100.00
2023-04-07T08:03:22.704Z,100.00
2023-04-07T08:05:49.986Z,100.00
2023-04-07T08:08:16.999Z,100.00
2023-04-07T08:10:43.677Z,100.00
2023-04-07T08:13:10.843Z,100.00
2023-04-07T08:15:37.750Z,100.00
2023-04-07T08:18:06.502Z,100.00
2023-04-07T08:20:34.043Z,100.00
2023-04-07T08:23:02.235Z,100.00
2023-04-07T08:25:29.434Z,100.00
2023-04-07T08:27:56.297Z,100.00
2023-04-07T08:30:22.941Z,100.00
2023-04-07T08:32:49.836Z,100.00
2023-04-07T08:35:16.554Z,100.00
2023-04-07T08:37:44.401Z,100.00
2023-04-07T08:40:12.271Z,100.00
2023-04-07T08:42:43.024Z,100.00
2023-04-07T08:45:13.932Z,91.49
2023-04-07T08:47:44.138Z,92.17
2023-04-07T08:50:11.904Z,92.35
2023-04-07T08:52:44.782Z,83.19
2023-04-07T08:55:11.997Z,88.99
2023-04-07T08:57:39.202Z,85.43
2023-04-07T09:00:06.345Z,76.69
2023-04-07T09:02:34.913Z,65.98
2023-04-07T09:05:04.468Z,66.94
2023-04-07T09:07:33.222Z,60.46
2023-04-07T09:10:00.277Z,54.60
2023-04-07T09:12:28.427Z,52.33
2023-04-07T09:14:55.583Z,50.81
2023-04-07T09:17:22.176Z,48.94
2023-04-07T09:19:49.256Z,53.83
2023-04-07T09:22:15.926Z,52.22
2023-04-07T09:24:42.519Z,45.44
2023-04-07T09:27:16.951Z,50.46
2023-04-07T09:29:46.368Z,50.31
2023-04-07T09:32:14.237Z,46.61
2023-04-07T09:34:41.729Z,47.91
2023-04-07T09:37:11.902Z,47.16
2023-04-07T09:39:53.449Z,45.22
2023-04-07T09:42:21.605Z,41.79
2023-04-07T09:44:48.263Z,44.65
2023-04-07T09:47:15.168Z,43.76
2023-04-07T09:49:55.476Z,44.24
2023-04-07T09:52:49.918Z,46.32
2023-04-07T09:55:17.428Z,48.96
2023-04-07T09:57:45.340Z,49.17
2023-04-07T10:00:12.642Z,46.38
2023-04-07T10:02:43.604Z,48.17
2023-04-07T10:05:11.996Z,47.30
2023-04-07T10:07:40.886Z,45.34
2023-04-07T10:10:09.094Z,50.78
2023-04-07T10:12:37.884Z,50.46
2023-04-07T10:15:06.190Z,52.04
2023-04-07T10:17:33.911Z,49.57
2023-04-07T10:20:01.850Z,50.18
2023-04-07T10:22:29.623Z,50.03
2023-04-07T10:25:02.863Z,49.49
2023-04-07T10:27:37.069Z,51.50
2023-04-07T10:30:07.674Z,50.41
2023-04-07T10:32:50.335Z,48.36
2023-04-07T10:35:17.587Z,46.37
2023-04-07T10:38:07.379Z,45.51
2023-04-07T10:40:35.714Z,44.81
2023-04-07T10:43:02.818Z,46.92
2023-04-07T10:45:53.731Z,44.86
2023-04-07T10:48:20.828Z,41.75
2023-04-07T10:51:12.477Z,43.30
2023-04-07T10:53:59.029Z,43.40
2023-04-07T10:56:25.854Z,42.70
2023-04-07T10:59:15.348Z,42.97
2023-04-07T11:01:42.071Z,44.88
2023-04-07T11:04:09.264Z,44.55
2023-04-07T11:06:36.195Z,44.39
2023-04-07T11:09:03.321Z,44.09
2023-04-07T11:11:38.766Z,46.18
2023-04-07T11:14:06.212Z,46.07
2023-04-07T11:16:43.502Z,46.35
2023-04-07T11:19:10.702Z,44.45
2023-04-07T11:21:37.408Z,44.27
2023-04-07T11:24:04.421Z,44.90
2023-04-07T11:26:38.083Z,45.66
2023-04-07T11:29:05.306Z,45.41
2023-04-07T11:31:32.709Z,43.62
2023-04-07T11:34:05.041Z,44.74
2023-04-07T11:36:42.208Z,43.40
2023-04-07T11:39:21.524Z,45.33
2023-04-07T11:41:49.630Z,43.94
2023-04-07T11:44:16.941Z,42.00
2023-04-07T11:47:01.021Z,43.52
2023-04-07T11:49:28.752Z,43.75
2023-04-07T11:52:03.195Z,44.31
2023-04-07T11:54:47.319Z,42.05
2023-04-07T11:57:14.649Z,41.66
2023-04-07T11:59:42.009Z,39.69
2023-04-07T12:02:09.517Z,39.09
2023-04-07T12:04:39.833Z,38.30
2023-04-07T12:07:11.308Z,39.71
2023-04-07T12:09:38.518Z,42.58
2023-04-07T12:12:07.530Z,40.87
2023-04-07T12:14:35.831Z,41.36
2023-04-07T12:17:03.853Z,41.03
2023-04-07T12:19:36.038Z,41.70
2023-04-07T12:22:03.444Z,41.55
2023-04-07T12:24:31.422Z,43.30
2023-04-07T12:26:58.328Z,44.23
2023-04-07T12:29:25.048Z,43.92
2023-04-07T12:31:51.783Z,43.77
2023-04-07T12:34:18.892Z,44.61
2023-04-07T12:36:45.624Z,44.17
2023-04-07T12:39:12.649Z,45.51
2023-04-07T12:41:39.791Z,47.32
2023-04-07T12:44:06.481Z,46.16
2023-04-07T12:46:33.849Z,46.88
2023-04-07T12:49:01.056Z,45.79
2023-04-07T12:51:28.555Z,46.21
2023-04-07T12:53:55.333Z,48.71
2023-04-07T12:56:24.767Z,47.68
2023-04-07T12:58:51.660Z,47.13
2023-04-07T13:01:18.295Z,46.35
2023-04-07T13:03:45.365Z,46.14
2023-04-07T13:06:12.296Z,47.72
2023-04-07T13:08:39.986Z,47.40
2023-04-07T13:11:07.432Z,46.78
2023-04-07T13:13:34.452Z,49.63
2023-04-07T13:16:01.889Z,48.23
2023-04-07T13:18:28.458Z,48.02
2023-04-07T13:21:26.322Z,48.28
2023-04-07T13:23:43.939Z,50.83
2023-04-07T13:26:11.221Z,50.87
2023-04-07T13:28:38.066Z,51.84
2023-04-07T13:31:04.984Z,49.74
2023-04-07T13:33:31.673Z,52.50
2023-04-07T13:35:58.319Z,53.32
2023-04-07T13:38:25.172Z,51.85
2023-04-07T13:40:51.855Z,52.93
2023-04-07T13:43:19.158Z,53.14
2023-04-07T13:45:46.821Z,52.02
2023-04-07T13:48:13.740Z,54.56
2023-04-07T13:50:40.869Z,53.06
2023-04-07T13:53:07.613Z,55.03
2023-04-07T13:55:34.503Z,55.00
2023-04-07T13:58:01.437Z,55.45
2023-04-07T14:00:28.629Z,56.03
2023-04-07T14:02:56.119Z,55.18
2023-04-07T14:05:23.847Z,54.36
2023-04-07T14:07:51.152Z,54.17
2023-04-07T14:10:18.122Z,52.44
2023-04-07T14:12:45.031Z,54.36
2023-04-07T14:15:11.863Z,54.31
2023-04-07T14:17:38.819Z,56.07
2023-04-07T14:20:06.407Z,56.22
2023-04-07T14:22:34.198Z,59.66
2023-04-07T14:25:00.895Z,57.15
2023-04-07T14:27:31.059Z,60.37
2023-04-07T14:29:59.559Z,58.17
2023-04-07T14:32:29.367Z,55.66
2023-04-07T14:34:56.662Z,62.00
2023-04-07T14:37:26.341Z,60.68
2023-04-07T14:40:02.400Z,59.24
2023-04-07T14:42:30.844Z,59.41
2023-04-07T14:44:59.561Z,58.89
2023-04-07T14:47:26.500Z,62.38
2023-04-07T14:49:53.835Z,63.00
2023-04-07T14:52:21.915Z,63.49
2023-04-07T14:54:48.874Z,63.78
2023-04-07T14:57:16.609Z,64.39
2023-04-07T14:59:43.741Z,63.33
2023-04-07T15:02:10.518Z,64.95
2023-04-07T15:04:37.272Z,65.66
2023-04-07T15:07:04.304Z,66.25
2023-04-07T15:09:31.552Z,65.52
2023-04-07T15:12:00.354Z,70.14
2023-04-07T15:14:27.083Z,74.10
2023-04-07T15:16:53.771Z,71.38
2023-04-07T15:19:20.387Z,71.53
2023-04-07T15:21:47.041Z,76.22
2023-04-07T15:24:15.836Z,74.71
2023-04-07T15:26:43.175Z,72.88
2023-04-07T15:29:09.713Z,72.36
2023-04-07T15:31:36.563Z,73.07
2023-04-07T15:34:03.539Z,72.01
2023-04-07T15:36:31.327Z,72.03
2023-04-07T15:39:04.050Z,70.63
2023-04-07T15:41:30.848Z,72.08
2023-04-07T15:43:59.982Z,73.98
2023-04-07T15:46:27.022Z,72.27
2023-04-07T15:48:53.602Z,74.41
2023-04-07T15:51:20.796Z,74.00
2023-04-07T15:53:47.683Z,77.95
2023-04-07T15:56:14.778Z,78.80
2023-04-07T15:58:41.470Z,76.00
2023-04-07T16:01:08.487Z,77.58
2023-04-07T16:03:35.313Z,80.80
2023-04-07T16:06:02.182Z,81.23
2023-04-07T16:08:28.844Z,79.65
2023-04-07T16:10:55.431Z,83.45
2023-04-07T16:13:21.997Z,83.95
2023-04-07T16:15:48.605Z,83.07
2023-04-07T16:18:15.587Z,84.26
2023-04-07T16:20:42.151Z,85.79
2023-04-07T16:23:09.029Z,88.31
2023-04-07T16:25:35.881Z,86.93
2023-04-07T16:28:02.719Z,86.39
2023-04-07T16:30:29.481Z,87.14
2023-04-07T16:32:56.150Z,90.67
2023-04-07T16:35:23.090Z,91.31
2023-04-07T16:37:50.343Z,91.79
2023-04-07T16:40:17.291Z,90.86
2023-04-07T16:42:43.941Z,91.46
2023-04-07T16:45:11.240Z,91.65
2023-04-07T16:47:38.072Z,91.95
2023-04-07T16:50:05.268Z,93.70
2023-04-07T16:52:32.438Z,94.08
2023-04-07T16:55:00.373Z,94.03
2023-04-07T16:57:26.922Z,93.71
2023-04-07T16:59:53.742Z,93.19
2023-04-07T17:02:20.568Z,94.43
2023-04-07T17:04:47.514Z,95.86
2023-04-07T17:07:14.303Z,96.25
2023-04-07T17:09:41.082Z,96.19
2023-04-07T17:12:07.954Z,94.97
2023-04-07T17:14:34.799Z,95.92
2023-04-07T17:17:01.894Z,95.71
2023-04-07T17:19:28.888Z,96.22
2023-04-07T17:21:56.331Z,95.62
2023-04-07T17:24:23.253Z,96.63
2023-04-07T17:26:50.238Z,96.72
2023-04-07T17:29:17.548Z,96.87
2023-04-07T17:31:44.462Z,97.63
2023-04-07T17:34:11.747Z,98.17
2023-04-07T17:36:38.991Z,99.57
2023-04-07T17:39:05.934Z,99.36
2023-04-07T17:41:34.495Z,100.00
2023-04-07T17:44:02.057Z,100.00
2023-04-07T17:46:29.170Z,100.00
2023-04-07T17:48:59.147Z,100.00
2023-04-07T17:51:26.864Z,100.00
2023-04-07T17:53:54.107Z,100.00
2023-04-07T17:56:21.566Z,100.00
2023-04-07T17:58:48.520Z,100.00
2023-04-07T18:01:16.944Z,100.00
2023-04-07T18:03:44.258Z,100.00
2023-04-07T18:06:17.004Z,100.00
2023-04-07T18:08:48.073Z,100.00
2023-04-07T18:11:15.490Z,100.00
2023-04-07T18:13:42.309Z,100.00
2023-04-07T18:16:09.695Z,100.00
2023-04-07T18:18:38.133Z,100.00
2023-04-07T18:21:07.079Z,100.00
2023-04-07T18:23:35.280Z,100.00
2023-04-07T18:26:06.770Z,100.00
2023-04-07T18:28:34.059Z,100.00
2023-04-07T18:31:06.876Z,100.00
2023-04-07T18:33:34.940Z,100.00
2023-04-07T18:36:07.549Z,100.00
2023-04-07T18:38:35.964Z,100.00
2023-04-07T18:41:03.754Z,100.00
2023-04-07T18:43:31.509Z,100.00
2023-04-07T18:45:58.533Z,100.00
2023-04-07T18:48:26.391Z,100.00
2023-04-07T18:50:54.836Z,100.00
2023-04-07T18:53:22.696Z,100.00
2023-04-07T18:55:50.114Z,100.00
2023-04-07T18:58:16.901Z,100.00
2023-04-07T19:00:44.655Z,100.00
2023-04-07T19:03:11.811Z,100.00
2023-04-07T19:05:39.818Z,100.00
2023-04-07T19:08:06.588Z,100.00
2023-04-07T19:10:33.845Z,100.00
2023-04-07T19:13:01.652Z,100.00
2023-04-07T19:15:32.787Z,100.00
2023-04-07T19:17:59.907Z,100.00
2023-04-07T19:20:27.083Z,100.00
2023-04-07T19:22:53.836Z,100.00
2023-04-07T19:25:20.601Z,100.00
2023-04-07T19:27:48.025Z,100.00
2023-04-07T19:30:16.407Z,100.00
2023-04-07T19:32:43.829Z,100.00
2023-04-07T19:35:11.971Z,100.00
2023-04-07T19:37:40.209Z,100.00
2023-04-07T19:40:07.744Z,100.00
2023-04-07T19:42:35.716Z,100.00
2023-04-07T19:45:04.776Z,100.00
2023-04-07T19:47:31.844Z,100.00
2023-04-07T19:49:58.707Z,100.00
2023-04-07T19:52:25.311Z,100.00
2023-04-07T19:54:52.641Z,100.00
2023-04-07T19:57:19.274Z,100.00
2023-04-07T19:59:46.120Z,100.00
2023-04-07T20:02:12.734Z,100.00
2023-04-07T20:04:39.805Z,100.00
2023-04-07T20:07:06.616Z,100.00
2023-04-07T20:09:33.264Z,100.00
2023-04-07T20:11:59.821Z,100.00
2023-04-07T20:14:26.458Z,100.00
2023-04-07T20:16:54.039Z,100.00
2023-04-07T20:19:21.108Z,100.00
2023-04-07T20:21:47.877Z,100.00
2023-04-07T20:24:14.745Z,100.00
2023-04-07T20:26:41.503Z,100.00
2023-04-07T20:29:08.362Z,100.00
2023-04-07T20:31:35.003Z,100.00
2023-04-07T20:34:01.780Z,100.00
2023-04-07T20:36:28.332Z,100.00
2023-04-07T20:38:55.230Z,100.00
2023-04-07T20:41:25.293Z,100.00
2023-04-07T20:43:52.857Z,100.00
2023-04-07T20:46:19.521Z,100.00
2023-04-07T20:48:46.110Z,100.00
2023-04-07T20:51:13.742Z,100.00
2023-04-07T20:53:40.850Z,100.00
2023-04-07T20:56:07.597Z,100.00
2023-04-07T20:58:34.278Z,100.00
2023-04-07T21:01:01.378Z,100.00
2023-04-07T21:03:28.887Z,100.00
2023-04-07T21:05:56.784Z,100.00
2023-04-07T21:08:24.495Z,100.00
2023-04-07T21:10:52.573Z,100.00
2023-04-07T21:13:20.231Z,100.00
2023-04-07T21:15:46.960Z,100.00
2023-04-07T21:18:13.630Z,100.00
2023-04-07T21:20:40.313Z,100.00
2023-04-07T21:23:10.698Z,100.00
2023-04-07T21:25:40.728Z,100.00
2023-04-07T21:28:07.453Z,100.00
2023-04-07T21:30:34.168Z,100.00
2023-04-07T21:33:01.125Z,100.00
2023-04-07T21:35:31.532Z,100.00
2023-04-07T21:37:58.051Z,100.00
2023-04-07T21:40:24.647Z,100.00
2023-04-07T21:42:52.105Z,100.00
2023-04-07T21:45:19.563Z,100.00
2023-04-07T21:47:46.886Z,100.00
2023-04-07T21:50:13.742Z,100.00
2023-04-07T21:52:41.430Z,100.00
2023-04-07T21:55:10.564Z,100.00
2023-04-07T21:57:37.417Z,100.00
2023-04-07T22:00:04.431Z,100.00
2023-04-07T22:02:41.473Z,100.00
2023-04-07T22:05:08.981Z,100.00
2023-04-07T22:07:36.093Z,100.00
2023-04-07T22:10:03.435Z,100.00
2023-04-07T22:12:30.245Z,100.00
2023-04-07T22:14:56.816Z,100.00
2023-04-07T22:17:23.618Z,100.00
2023-04-07T22:19:50.353Z,100.00
2023-04-07T22:22:17.023Z,100.00
2023-04-07T22:24:43.994Z,100.00
2023-04-07T22:27:11.326Z,100.00
2023-04-07T22:29:37.839Z,100.00
2023-04-07T22:32:04.797Z,100.00
2023-04-07T22:34:31.506Z,100.00
2023-04-07T22:36:58.219Z,100.00
2023-04-07T22:39:25.111Z,100.00
2023-04-07T22:41:51.624Z,100.00
2023-04-07T22:44:18.331Z,100.00
2023-04-07T22:46:45.001Z,100.00
2023-04-07T22:49:11.648Z,100.00
2023-04-07T22:51:38.211Z,100.00
2023-04-07T22:54:04.943Z,100.00
2023-04-07T22:56:31.672Z,100.00
2023-04-07T22:59:05.528Z,100.00
2023-04-07T23:01:33.041Z,100.00
2023-04-07T23:04:00.160Z,100.00
2023-04-07T23:06:28.572Z,100.00
2023-04-07T23:08:55.957Z,100.00
2023-04-07T23:11:22.867Z,100.00
2023-04-07T23:13:49.498Z,100.00
2023-04-07T23:16:16.610Z,100.00
2023-04-07T23:18:43.369Z,100.00
2023-04-07T23:21:10.669Z,100.00
2023-04-07T23:23:39.267Z,100.00
2023-04-07T23:26:08.775Z,100.00
2023-04-07T23:28:35.500Z,100.00
2023-04-07T23:31:02.183Z,100.00
2023-04-07T23:33:31.579Z,100.00
2023-04-07T23:35:58.916Z,100.00
2023-04-07T23:38:26.074Z,100.00
2023-04-07T23:40:53.248Z,100.00
2023-04-07T23:43:20.456Z,100.00
2023-04-07T23:45:47.486Z,100.00
2023-04-07T23:48:15.460Z,100.00
2023-04-07T23:50:42.337Z,100.00
2023-04-07T23:53:09.145Z,100.00
2023-04-07T23:55:36.247Z,100.00
2023-04-07T23:58:02.947Z,100.00
